createdAt,value
2019-02-05T00:01:30.838Z,101771.39
2019-02-05T00:04:02.055Z,101769.03
2019-02-05T00:06:31.529Z,101765.70
2019-02-05T00:09:00.998Z,101769.13
2019-02-05T00:11:32.323Z,101775.45
2019-02-05T00:14:01.798Z,101781.22
2019-02-05T00:16:31.322Z,101777.03
2019-02-05T00:19:01.084Z,101773.09
2019-02-05T00:21:30.606Z,101776.77
2019-02-05T00:24:00.096Z,101772.48
2019-02-05T00:26:29.588Z,101775.95
2019-02-05T00:28:59.068Z,101781.31
2019-02-05T00:31:28.556Z,101786.86
2019-02-05T00:33:58.033Z,101780.05
2019-02-05T00:36:27.515Z,101781.63
2019-02-05T00:38:56.993Z,101777.52
2019-02-05T00:41:26.477Z,101796.05
2019-02-05T00:43:55.957Z,101798.80
2019-02-05T00:46:25.439Z,101800.61
2019-02-05T00:48:55.882Z,101786.44
2019-02-05T00:51:25.378Z,101789.22
2019-02-05T00:53:54.851Z,101785.87
2019-02-05T00:56:24.324Z,101793.63
2019-02-05T00:58:53.915Z,101804.59
2019-02-05T01:01:23.358Z,101815.09
2019-02-05T01:03:52.838Z,101815.02
2019-02-05T01:06:22.387Z,101815.16
2019-02-05T01:08:51.863Z,101817.75
2019-02-05T01:11:21.338Z,101828.28
2019-02-05T01:13:50.839Z,101811.22
2019-02-05T01:16:20.597Z,101816.75
2019-02-05T01:18:50.089Z,101817.02
2019-02-05T01:21:19.584Z,101810.48
2019-02-05T01:23:49.083Z,101814.66
2019-02-05T01:26:28.646Z,101814.85
2019-02-05T01:28:49.756Z,101817.33
2019-02-05T01:31:19.522Z,101816.62
2019-02-05T01:33:48.999Z,101827.73
2019-02-05T01:36:18.486Z,101826.75
2019-02-05T01:38:47.972Z,101828.11
2019-02-05T01:41:17.458Z,101825.66
2019-02-05T01:43:46.947Z,101822.10
2019-02-05T01:46:16.445Z,101819.45
2019-02-05T01:48:46.609Z,101816.52
2019-02-05T01:51:16.096Z,101820.30
2019-02-05T01:53:45.598Z,101822.11
2019-02-05T01:56:15.086Z,101818.88
2019-02-05T01:58:44.583Z,101822.87
2019-02-05T02:01:14.134Z,101828.88
2019-02-05T02:03:43.717Z,101828.30
2019-02-05T02:06:13.211Z,101834.15
2019-02-05T02:08:42.780Z,101830.64
2019-02-05T02:11:12.259Z,101840.16
2019-02-05T02:13:41.750Z,101832.47
2019-02-05T02:16:11.221Z,101838.81
2019-02-05T02:18:40.706Z,101846.47
2019-02-05T02:21:10.185Z,101847.86
2019-02-05T02:23:39.672Z,101848.41
2019-02-05T02:26:09.147Z,101831.58
2019-02-05T02:28:38.640Z,101826.41
2019-02-05T02:31:08.192Z,101834.23
2019-02-05T02:33:37.696Z,101835.41
2019-02-05T02:36:07.186Z,101831.91
2019-02-05T02:38:36.676Z,101833.06
2019-02-05T02:41:06.249Z,101832.78
2019-02-05T02:43:36.139Z,101824.53
2019-02-05T02:46:05.710Z,101828.99
2019-02-05T02:48:36.177Z,101836.58
2019-02-05T02:51:05.665Z,101842.13
2019-02-05T02:53:35.151Z,101835.64
2019-02-05T02:56:04.907Z,101842.45
2019-02-05T02:58:34.681Z,101844.70
2019-02-05T03:01:04.148Z,101836.41
2019-02-05T03:03:33.768Z,101843.83
2019-02-05T03:06:03.268Z,101837.61
2019-02-05T03:08:32.765Z,101842.28
2019-02-05T03:11:02.247Z,101840.59
2019-02-05T03:13:31.811Z,101844.21
2019-02-05T03:16:01.290Z,101827.17
2019-02-05T03:18:30.775Z,101840.87
2019-02-05T03:21:00.257Z,101844.10
2019-02-05T03:23:29.753Z,101836.62
2019-02-05T03:25:59.249Z,101844.38
2019-02-05T03:28:28.746Z,101835.92
2019-02-05T03:30:58.235Z,101838.34
2019-02-05T03:33:27.751Z,101838.45
2019-02-05T03:35:57.295Z,101839.72
2019-02-05T03:38:26.805Z,101841.36
2019-02-05T03:41:04.579Z,101847.41
2019-02-05T03:43:35.705Z,101840.59
2019-02-05T03:46:12.664Z,101843.50
2019-02-05T03:48:43.178Z,101841.47
2019-02-05T03:52:21.615Z,101849.55
2019-02-05T03:55:26.773Z,101847.51
2019-02-05T03:58:09.085Z,101851.20
2019-02-05T04:01:10.327Z,101855.77
2019-02-05T04:03:55.303Z,101850.03
2019-02-05T04:07:03.615Z,101856.53
2019-02-05T04:09:43.486Z,101849.44
2019-02-05T04:12:22.333Z,101848.88
2019-02-05T04:15:09.005Z,101841.95
2019-02-05T04:17:53.330Z,101839.05
2019-02-05T04:21:18.887Z,101842.84
2019-02-05T04:24:03.808Z,101841.69
2019-02-05T04:27:10.417Z,101844.31
2019-02-05T04:30:05.947Z,101836.91
2019-02-05T04:32:54.370Z,101834.48
2019-02-05T04:35:38.432Z,101837.44
2019-02-05T04:38:43.654Z,101787.97
2019-02-05T04:41:55.293Z,101837.89
2019-02-05T04:44:46.879Z,101833.12
2019-02-05T04:47:52.942Z,101832.73
2019-02-05T04:50:30.665Z,101837.41
2019-02-05T04:53:28.914Z,101838.59
2019-02-05T04:56:19.730Z,101848.06
2019-02-05T04:59:36.781Z,101845.69
2019-02-05T05:02:36.959Z,101849.66
2019-02-05T05:05:33.292Z,101850.73
2019-02-05T05:08:53.333Z,101847.23
2019-02-05T05:11:22.887Z,101844.91
2019-02-05T05:13:52.384Z,101847.93
2019-02-05T05:16:21.987Z,101853.55
2019-02-05T05:18:51.513Z,101856.95
2019-02-05T05:21:21.090Z,101865.41
2019-02-05T05:23:50.869Z,101861.41
2019-02-05T05:26:20.425Z,101858.78
2019-02-05T05:28:49.978Z,101864.89
2019-02-05T05:31:19.545Z,101851.69
2019-02-05T05:33:49.039Z,101856.64
2019-02-05T05:36:18.522Z,101857.73
2019-02-05T05:38:48.085Z,101860.53
2019-02-05T05:41:18.009Z,101867.94
2019-02-05T05:43:47.577Z,101869.02
2019-02-05T05:46:17.063Z,101866.80
2019-02-05T05:48:46.649Z,101869.52
2019-02-05T05:51:16.167Z,101865.98
2019-02-05T05:53:45.734Z,101872.80
2019-02-05T05:56:15.341Z,101880.87
2019-02-05T05:58:44.825Z,101881.66
2019-02-05T06:01:14.318Z,101880.11
2019-02-05T06:03:43.841Z,101885.36
2019-02-05T06:06:13.369Z,101890.77
2019-02-05T06:08:43.010Z,101888.84
2019-02-05T06:11:12.567Z,101897.20
2019-02-05T06:13:42.340Z,101897.58
2019-02-05T06:16:12.926Z,101893.23
2019-02-05T06:18:42.414Z,101891.86
2019-02-05T06:21:13.762Z,101903.12
2019-02-05T06:23:43.472Z,101896.24
2019-02-05T06:26:13.002Z,101897.79
2019-02-05T06:28:42.757Z,101905.45
2019-02-05T06:31:12.248Z,101906.72
2019-02-05T06:33:41.799Z,101914.79
2019-02-05T06:36:11.301Z,101911.67
2019-02-05T06:38:40.805Z,101917.40
2019-02-05T06:41:10.332Z,101921.68
2019-02-05T06:43:40.276Z,101920.14
2019-02-05T06:46:09.772Z,101920.24
2019-02-05T06:48:39.434Z,101926.35
2019-02-05T06:51:08.945Z,101931.70
2019-02-05T06:53:38.459Z,101943.19
2019-02-05T06:56:07.955Z,101934.83
2019-02-05T06:58:45.960Z,101944.66
2019-02-05T07:01:09.113Z,101947.75
2019-02-05T07:03:38.642Z,101947.88
2019-02-05T07:06:08.221Z,101952.63
2019-02-05T07:08:37.731Z,101950.17
2019-02-05T07:11:07.500Z,101961.70
2019-02-05T07:13:36.995Z,101963.25
2019-02-05T07:16:06.481Z,101967.81
2019-02-05T07:18:36.093Z,101965.00
2019-02-05T07:21:06.610Z,101970.66
2019-02-05T07:23:36.218Z,101975.89
2019-02-05T07:26:05.713Z,101979.86
2019-02-05T07:28:35.227Z,101981.22
2019-02-05T07:31:05.456Z,101985.69
2019-02-05T07:33:34.955Z,101994.27
2019-02-05T07:36:04.898Z,101998.94
2019-02-05T07:38:36.241Z,101995.74
2019-02-05T07:41:06.094Z,101935.52
2019-02-05T07:43:36.236Z,102002.25
2019-02-05T07:46:06.314Z,102012.09
2019-02-05T07:48:36.324Z,102013.94
2019-02-05T07:51:06.349Z,102016.37
2019-02-05T07:53:36.694Z,102023.95
2019-02-05T07:56:06.506Z,102011.41
2019-02-05T07:58:36.458Z,102031.55
2019-02-05T08:01:06.460Z,102038.38
2019-02-05T08:03:36.231Z,102004.70
2019-02-05T08:06:05.793Z,102031.25
2019-02-05T08:08:35.280Z,102038.45
2019-02-05T08:11:05.606Z,102036.98
2019-02-05T08:13:35.116Z,102039.23
2019-02-05T08:16:04.984Z,102034.66
2019-02-05T08:18:34.510Z,102034.45
2019-02-05T08:21:04.407Z,102035.72
2019-02-05T08:23:33.898Z,102037.97
2019-02-05T08:26:03.396Z,102048.09
2019-02-05T08:28:40.545Z,102047.08
2019-02-05T08:31:04.158Z,102045.20
2019-02-05T08:33:33.655Z,102049.03
2019-02-05T08:36:03.226Z,102056.48
2019-02-05T08:38:32.744Z,102058.67
2019-02-05T08:41:02.225Z,102061.42
2019-02-05T08:43:31.708Z,102061.38
2019-02-05T08:46:01.268Z,102064.79
2019-02-05T08:48:30.751Z,102068.48
2019-02-05T08:51:00.225Z,102068.97
2019-02-05T08:53:30.094Z,102067.70
2019-02-05T08:55:59.567Z,102069.08
2019-02-05T08:58:31.248Z,102076.08
2019-02-05T09:01:00.297Z,102077.73
2019-02-05T09:03:29.792Z,102085.75
2019-02-05T09:05:59.275Z,102082.02
2019-02-05T09:08:28.761Z,102079.98
2019-02-05T09:10:58.324Z,102077.37
2019-02-05T09:13:28.776Z,102081.25
2019-02-05T09:15:58.263Z,102085.54
2019-02-05T09:18:28.716Z,102087.41
2019-02-05T09:20:58.200Z,102084.48
2019-02-05T09:23:27.844Z,102090.89
2019-02-05T09:25:57.601Z,102086.48
2019-02-05T09:28:27.094Z,102090.61
2019-02-05T09:30:56.576Z,102090.60
2019-02-05T09:33:26.055Z,102089.73
2019-02-05T09:35:55.543Z,102086.91
2019-02-05T09:38:25.018Z,102088.36
2019-02-05T09:40:54.502Z,102095.77
2019-02-05T09:43:23.994Z,102097.35
2019-02-05T09:45:53.484Z,102088.38
2019-02-05T09:48:22.956Z,102101.72
2019-02-05T09:50:52.445Z,102090.32
2019-02-05T09:53:21.935Z,102100.95
2019-02-05T09:55:51.424Z,102095.66
2019-02-05T09:58:21.205Z,102107.27
2019-02-05T10:00:50.700Z,102115.73
2019-02-05T10:03:20.248Z,102109.38
2019-02-05T10:05:49.855Z,102114.91
2019-02-05T10:08:19.342Z,102117.55
2019-02-05T10:10:49.902Z,102120.07
2019-02-05T10:13:19.455Z,102124.43
2019-02-05T10:15:48.916Z,102132.35
2019-02-05T10:18:18.424Z,102134.27
2019-02-05T10:20:48.368Z,102134.06
2019-02-05T10:23:17.953Z,102132.12
2019-02-05T10:25:47.543Z,102136.48
2019-02-05T10:28:17.051Z,102130.73
2019-02-05T10:30:46.905Z,102137.36
2019-02-05T10:33:16.477Z,102142.43
2019-02-05T10:35:46.086Z,102140.65
2019-02-05T10:38:15.591Z,102144.63
2019-02-05T10:40:45.109Z,102143.79
2019-02-05T10:43:14.695Z,102147.87
2019-02-05T10:45:44.696Z,102145.88
2019-02-05T10:48:14.198Z,102148.04
2019-02-05T10:50:44.751Z,102149.03
2019-02-05T10:53:14.451Z,102145.93
2019-02-05T10:55:43.969Z,102146.16
2019-02-05T10:58:13.469Z,102152.05
2019-02-05T11:00:42.983Z,102141.28
2019-02-05T11:03:12.560Z,102144.58
2019-02-05T11:05:42.078Z,102144.75
2019-02-05T11:08:11.591Z,102136.25
2019-02-05T11:10:41.114Z,102132.06
2019-02-05T11:13:10.676Z,102132.77
2019-02-05T11:15:40.274Z,102137.64
2019-02-05T11:18:11.119Z,102138.23
2019-02-05T11:20:40.742Z,102141.34
2019-02-05T11:23:10.521Z,102140.50
2019-02-05T11:25:40.381Z,102138.69
2019-02-05T11:28:09.976Z,102129.66
2019-02-05T11:30:44.331Z,102125.18
2019-02-05T11:33:14.286Z,102123.81
2019-02-05T11:35:43.864Z,102125.74
2019-02-05T11:38:13.536Z,102130.76
2019-02-05T11:40:43.106Z,102141.06
2019-02-05T11:43:12.705Z,102141.03
2019-02-05T11:45:42.196Z,102139.67
2019-02-05T11:48:16.738Z,102138.79
2019-02-05T11:50:46.318Z,102137.78
2019-02-05T11:53:15.839Z,102132.98
2019-02-05T11:55:45.443Z,102141.25
2019-02-05T11:58:15.777Z,102132.28
2019-02-05T12:00:50.046Z,102129.89
2019-02-05T12:03:19.922Z,102128.37
2019-02-05T12:05:50.297Z,102124.95
2019-02-05T12:08:19.899Z,102129.69
2019-02-05T12:10:49.430Z,102130.39
2019-02-05T12:13:18.931Z,102128.27
2019-02-05T12:15:48.469Z,102123.16
2019-02-05T12:18:18.044Z,102124.58
2019-02-05T12:20:47.543Z,102122.02
2019-02-05T12:23:17.183Z,102126.13
2019-02-05T12:25:46.709Z,102120.52
2019-02-05T12:28:16.234Z,102121.76
2019-02-05T12:30:46.096Z,102121.01
2019-02-05T12:33:15.665Z,102118.31
2019-02-05T12:35:45.739Z,102118.60
2019-02-05T12:38:15.229Z,102118.34
2019-02-05T12:40:44.729Z,102119.45
2019-02-05T12:43:14.845Z,102115.41
2019-02-05T12:45:44.335Z,102101.66
2019-02-05T12:48:13.831Z,102112.52
2019-02-05T12:50:44.820Z,102114.41
2019-02-05T12:53:14.313Z,102116.11
2019-02-05T12:55:43.824Z,102110.30
2019-02-05T12:58:13.413Z,102122.48
2019-02-05T13:00:55.937Z,102119.38
2019-02-05T13:03:16.474Z,102122.53
2019-02-05T13:05:46.441Z,102117.06
2019-02-05T13:08:16.085Z,102120.69
2019-02-05T13:10:47.838Z,102125.94
2019-02-05T13:13:18.432Z,102130.55
2019-02-05T13:15:49.012Z,102129.96
2019-02-05T13:18:18.574Z,102126.62
2019-02-05T13:20:48.431Z,102130.41
2019-02-05T13:23:18.022Z,102073.09
2019-02-05T13:25:47.570Z,102131.83
2019-02-05T13:28:17.278Z,102137.52
2019-02-05T13:30:46.867Z,102134.30
2019-02-05T13:33:17.168Z,102144.66
2019-02-05T13:35:46.820Z,102142.84
2019-02-05T13:38:16.419Z,102144.36
2019-02-05T13:40:45.931Z,102141.81
2019-02-05T13:43:15.550Z,102146.91
2019-02-05T13:45:45.335Z,102149.16
2019-02-05T13:48:14.946Z,102149.28
2019-02-05T13:50:44.528Z,102150.47
2019-02-05T13:53:14.027Z,102149.94
2019-02-05T13:55:45.812Z,102152.52
2019-02-05T13:58:15.639Z,102157.08
2019-02-05T14:00:50.203Z,102156.16
2019-02-05T14:03:19.692Z,102158.05
2019-02-05T14:05:49.336Z,102157.86
2019-02-05T14:08:18.967Z,102164.18
2019-02-05T14:10:48.998Z,102155.30
2019-02-05T14:13:18.784Z,102156.58
2019-02-05T14:15:50.930Z,102152.63
2019-02-05T14:18:22.927Z,102157.02
2019-02-05T14:20:51.808Z,102158.08
2019-02-05T14:23:21.483Z,102153.21
2019-02-05T14:25:50.978Z,102160.45
2019-02-05T14:28:20.473Z,102155.69
2019-02-05T14:30:55.143Z,102155.90
2019-02-05T14:33:26.151Z,102160.59
2019-02-05T14:35:55.742Z,102154.80
2019-02-05T14:38:25.358Z,102159.80
2019-02-05T14:40:54.892Z,102154.53
2019-02-05T14:43:24.731Z,102155.47
2019-02-05T14:45:54.262Z,102166.55
2019-02-05T14:48:23.786Z,102167.33
2019-02-05T14:50:53.305Z,102168.98
2019-02-05T14:53:22.843Z,102167.97
2019-02-05T14:55:52.400Z,102169.14
2019-02-05T14:58:22.237Z,102167.48
2019-02-05T15:00:51.762Z,102169.30
2019-02-05T15:03:21.246Z,102169.87
2019-02-05T15:05:50.748Z,102169.52
2019-02-05T15:08:20.408Z,102167.85
2019-02-05T15:10:49.908Z,102171.61
2019-02-05T15:13:19.450Z,102180.25
2019-02-05T15:15:50.008Z,102173.57
2019-02-05T15:18:21.685Z,102177.20
2019-02-05T15:20:51.445Z,102176.61
2019-02-05T15:23:21.589Z,102175.48
2019-02-05T15:25:51.679Z,102180.16
2019-02-05T15:28:21.205Z,102176.36
2019-02-05T15:30:50.710Z,102184.18
2019-02-05T15:33:26.827Z,102182.90
2019-02-05T15:35:59.424Z,102183.63
2019-02-05T15:38:29.308Z,102184.06
2019-02-05T15:41:00.286Z,102183.67
2019-02-05T15:43:29.889Z,102179.98
2019-02-05T15:45:59.400Z,102185.28
2019-02-05T15:48:28.885Z,102176.70
2019-02-05T15:50:58.408Z,102184.19
2019-02-05T15:53:28.265Z,102189.97
2019-02-05T15:55:58.822Z,102181.98
2019-02-05T15:58:28.340Z,102184.80
2019-02-05T16:00:57.847Z,102178.34
2019-02-05T16:03:27.374Z,102176.13
2019-02-05T16:05:56.891Z,102177.95
2019-02-05T16:08:26.390Z,102179.98
2019-02-05T16:10:55.904Z,102180.65
2019-02-05T16:13:25.415Z,102180.66
2019-02-05T16:15:54.957Z,102180.98
2019-02-05T16:18:25.331Z,102182.03
2019-02-05T16:20:54.853Z,102161.48
2019-02-05T16:23:24.377Z,102173.94
2019-02-05T16:25:53.887Z,102181.38
2019-02-05T16:28:23.393Z,102182.05
2019-02-05T16:30:52.895Z,102183.69
2019-02-05T16:33:22.382Z,102181.54
2019-02-05T16:35:51.887Z,102181.42
2019-02-05T16:38:21.669Z,102184.28
2019-02-05T16:40:51.628Z,102192.40
2019-02-05T16:43:21.126Z,102191.39
2019-02-05T16:45:50.637Z,102189.75
2019-02-05T16:48:20.915Z,102194.33
2019-02-05T16:50:50.438Z,102157.25
2019-02-05T16:53:20.020Z,102195.20
2019-02-05T16:55:49.524Z,102203.91
2019-02-05T16:58:19.026Z,102201.83
2019-02-05T17:00:48.532Z,102202.14
2019-02-05T17:03:18.012Z,102203.79
2019-02-05T17:05:47.508Z,102205.23
2019-02-05T17:08:17.070Z,102208.43
2019-02-05T17:10:46.640Z,102206.21
2019-02-05T17:13:16.149Z,102206.98
2019-02-05T17:15:45.665Z,102211.39
2019-02-05T17:18:23.308Z,102216.75
2019-02-05T17:20:46.477Z,102221.61
2019-02-05T17:23:15.972Z,102222.31
2019-02-05T17:25:45.521Z,102220.16
2019-02-05T17:28:15.016Z,102219.23
2019-02-05T17:30:44.634Z,102221.20
2019-02-05T17:33:14.134Z,102219.94
2019-02-05T17:35:45.077Z,102222.53
2019-02-05T17:38:14.595Z,102214.42
2019-02-05T17:40:44.113Z,102208.43
2019-02-05T17:43:13.647Z,102213.27
2019-02-05T17:45:44.220Z,102208.91
2019-02-05T17:48:16.198Z,102212.05
2019-02-05T17:50:45.921Z,102211.45
2019-02-05T17:53:15.455Z,102209.32
2019-02-05T17:55:44.955Z,102213.01
2019-02-05T17:58:14.489Z,102206.28
2019-02-05T18:00:57.052Z,102206.00
2019-02-05T18:03:26.554Z,102204.02
2019-02-05T18:05:56.034Z,102213.17
2019-02-05T18:08:25.552Z,102209.09
2019-02-05T18:10:55.413Z,102215.22
2019-02-05T18:13:25.416Z,102155.92
2019-02-05T18:15:55.483Z,102109.20
2019-02-05T18:18:25.033Z,102188.94
2019-02-05T18:20:54.599Z,102219.83
2019-02-05T18:23:24.199Z,102213.32
2019-02-05T18:25:53.736Z,102213.98
2019-02-05T18:28:23.179Z,102209.70
2019-02-05T18:30:53.049Z,102206.77
2019-02-05T18:33:22.574Z,102216.52
2019-02-05T18:35:52.086Z,102214.38
2019-02-05T18:38:21.691Z,102221.28
2019-02-05T18:40:51.227Z,102209.69
2019-02-05T18:43:20.782Z,102209.09
2019-02-05T18:45:50.668Z,102213.67
2019-02-05T18:48:20.175Z,102212.13
2019-02-05T18:50:49.683Z,102216.37
2019-02-05T18:53:19.239Z,102216.00
2019-02-05T18:55:49.162Z,102209.27
2019-02-05T18:58:18.734Z,102201.28
2019-02-05T19:00:48.639Z,102207.30
2019-02-05T19:03:18.191Z,102203.17
2019-02-05T19:05:47.774Z,102196.86
2019-02-05T19:08:17.300Z,102195.97
2019-02-05T19:10:46.857Z,102193.97
2019-02-05T19:13:16.438Z,102190.28
2019-02-05T19:15:46.558Z,102193.70
2019-02-05T19:18:17.147Z,102190.33
2019-02-05T19:20:46.738Z,102190.16
2019-02-05T19:23:16.231Z,102184.96
2019-02-05T19:26:10.937Z,102184.71
2019-02-05T19:28:41.609Z,102181.56
2019-02-05T19:31:23.650Z,102183.09
2019-02-05T19:33:53.159Z,102188.46
2019-02-05T19:36:23.708Z,102187.55
2019-02-05T19:38:54.069Z,102194.19
2019-02-05T19:41:24.302Z,102178.50
2019-02-05T19:43:53.877Z,102190.02
2019-02-05T19:46:41.946Z,102188.65
2019-02-05T19:49:31.927Z,102185.98
2019-02-05T19:52:02.609Z,102175.41
2019-02-05T19:54:33.753Z,102175.41
2019-02-05T19:57:03.289Z,102187.21
2019-02-05T19:59:32.803Z,102190.65
2019-02-05T20:02:02.581Z,102190.96
2019-02-05T20:04:32.110Z,102195.36
2019-02-05T20:07:01.645Z,102198.02
2019-02-05T20:09:31.247Z,102197.80
2019-02-05T20:12:09.041Z,102194.75
2019-02-05T20:14:43.087Z,102202.68
2019-02-05T20:17:20.727Z,102192.47
2019-02-05T20:19:57.812Z,102203.37
2019-02-05T20:22:27.442Z,102199.16
2019-02-05T20:24:57.274Z,102204.36
2019-02-05T20:27:27.135Z,102201.72
2019-02-05T20:29:57.021Z,102209.45
2019-02-05T20:32:28.175Z,102207.96
2019-02-05T20:34:58.933Z,102217.70
2019-02-05T20:37:28.668Z,102214.28
2019-02-05T20:39:59.006Z,102213.16
2019-02-05T20:42:31.368Z,102209.23
2019-02-05T20:45:00.954Z,102214.13
2019-02-05T20:47:30.605Z,102207.55
2019-02-05T20:50:00.262Z,102207.84
2019-02-05T20:52:29.918Z,102206.12
2019-02-05T20:54:59.443Z,102201.92
2019-02-05T20:57:30.261Z,102205.53
2019-02-05T21:00:02.623Z,102202.84
2019-02-05T21:02:33.187Z,102196.63
2019-02-05T21:05:02.686Z,102203.63
2019-02-05T21:07:33.899Z,102204.61
2019-02-05T21:10:06.516Z,102202.14
2019-02-05T21:12:38.100Z,102200.16
2019-02-05T21:15:09.326Z,102202.31
2019-02-05T21:17:38.846Z,102206.16
2019-02-05T21:20:10.634Z,102208.33
2019-02-05T21:22:40.128Z,102201.88
2019-02-05T21:26:49.677Z,102200.23
2019-02-05T21:29:19.249Z,102207.89
2019-02-05T21:31:48.758Z,102204.10
2019-02-05T21:34:18.269Z,102205.74
2019-02-05T21:36:48.143Z,102205.84
2019-02-05T21:41:01.618Z,102200.23
2019-02-05T21:43:31.284Z,102205.84
2019-02-05T21:46:01.211Z,102203.11
2019-02-05T21:48:30.788Z,102205.94
2019-02-05T21:51:00.344Z,102200.70
2019-02-05T21:53:29.887Z,102202.42
2019-02-05T21:55:59.432Z,102200.48
2019-02-05T21:58:28.940Z,102198.52
2019-02-05T22:00:58.491Z,102196.41
2019-02-05T22:03:30.548Z,102193.44
2019-02-05T22:06:00.073Z,102195.80
2019-02-05T22:08:32.463Z,102191.34
2019-02-05T22:11:02.044Z,102198.52
2019-02-05T22:13:31.555Z,102191.03
2019-02-05T22:16:01.095Z,102187.27
2019-02-05T22:18:30.620Z,102182.86
2019-02-05T22:21:00.156Z,102182.42
2019-02-05T22:23:29.651Z,102186.99
